sensor_id;sensor_type;location;lat;lon;timestamp;P1;durP1;ratioP1;P2;durP2;ratioP2
72899;SDS011;61043;52.036;5.566;2022-07-03T00:01:23;7.78;;;5.70;;
72899;SDS011;61043;52.036;5.566;2022-07-03T00:03:49;6.72;;;4.53;;
72899;SDS011;61043;52.036;5.566;2022-07-03T00:06:16;5.22;;;4.30;;
72899;SDS011;61043;52.036;5.566;2022-07-03T00:08:43;7.50;;;5.05;;
72899;SDS011;61043;52.036;5.566;2022-07-03T00:11:10;6.50;;;4.38;;
72899;SDS011;61043;52.036;5.566;2022-07-03T00:13:37;6.13;;;4.72;;
72899;SDS011;61043;52.036;5.566;2022-07-03T00:16:04;5.07;;;3.95;;
72899;SDS011;61043;52.036;5.566;2022-07-03T00:18:30;5.40;;;3.90;;
72899;SDS011;61043;52.036;5.566;2022-07-03T00:21:01;5.65;;;4.22;;
72899;SDS011;61043;52.036;5.566;2022-07-03T00:23:39;5.00;;;4.05;;
72899;SDS011;61043;52.036;5.566;2022-07-03T00:26:19;5.28;;;4.45;;
72899;SDS011;61043;52.036;5.566;2022-07-03T00:28:47;7.85;;;4.60;;
72899;SDS011;61043;52.036;5.566;2022-07-03T00:31:15;5.57;;;4.30;;
72899;SDS011;61043;52.036;5.566;2022-07-03T00:33:42;5.47;;;4.70;;
72899;SDS011;61043;52.036;5.566;2022-07-03T00:36:11;5.88;;;4.60;;
72899;SDS011;61043;52.036;5.566;2022-07-03T00:38:38;6.68;;;4.78;;
72899;SDS011;61043;52.036;5.566;2022-07-03T00:41:05;6.72;;;4.97;;
72899;SDS011;61043;52.036;5.566;2022-07-03T00:43:32;5.68;;;4.70;;
72899;SDS011;61043;52.036;5.566;2022-07-03T00:46:06;6.32;;;4.78;;
72899;SDS011;61043;52.036;5.566;2022-07-03T00:48:36;5.85;;;5.25;;
72899;SDS011;61043;52.036;5.566;2022-07-03T00:51:05;6.30;;;5.15;;
72899;SDS011;61043;52.036;5.566;2022-07-03T00:53:32;7.22;;;5.43;;
72899;SDS011;61043;52.036;5.566;2022-07-03T00:56:02;8.68;;;5.18;;
72899;SDS011;61043;52.036;5.566;2022-07-03T00:58:30;6.72;;;4.75;;
72899;SDS011;61043;52.036;5.566;2022-07-03T01:01:00;8.27;;;5.85;;
72899;SDS011;61043;52.036;5.566;2022-07-03T01:03:27;6.57;;;4.95;;
72899;SDS011;61043;52.036;5.566;2022-07-03T01:06:00;8.38;;;5.63;;
72899;SDS011;61043;52.036;5.566;2022-07-03T01:08:37;8.15;;;5.10;;
72899;SDS011;61043;52.036;5.566;2022-07-03T01:14:03;6.70;;;5.38;;
72899;SDS011;61043;52.036;5.566;2022-07-03T01:16:46;8.80;;;5.38;;
72899;SDS011;61043;52.036;5.566;2022-07-03T01:21:56;6.82;;;5.38;;
72899;SDS011;61043;52.036;5.566;2022-07-03T01:30:46;6.95;;;4.70;;
72899;SDS011;61043;52.036;5.566;2022-07-03T01:33:19;8.20;;;4.93;;
72899;SDS011;61043;52.036;5.566;2022-07-03T01:38:27;7.03;;;4.50;;
72899;SDS011;61043;52.036;5.566;2022-07-03T01:40:55;7.00;;;4.97;;
72899;SDS011;61043;52.036;5.566;2022-07-03T01:43:29;6.15;;;4.57;;
72899;SDS011;61043;52.036;5.566;2022-07-03T01:45:58;6.20;;;5.03;;
72899;SDS011;61043;52.036;5.566;2022-07-03T01:48:28;8.48;;;5.10;;
72899;SDS011;61043;52.036;5.566;2022-07-03T01:50:56;6.43;;;4.28;;
72899;SDS011;61043;52.036;5.566;2022-07-03T01:53:28;5.30;;;4.20;;
72899;SDS011;61043;52.036;5.566;2022-07-03T01:56:00;6.10;;;4.70;;
72899;SDS011;61043;52.036;5.566;2022-07-03T01:58:28;5.35;;;4.40;;
72899;SDS011;61043;52.036;5.566;2022-07-03T02:01:02;5.75;;;4.70;;
72899;SDS011;61043;52.036;5.566;2022-07-03T02:03:49;6.95;;;4.75;;
72899;SDS011;61043;52.036;5.566;2022-07-03T02:06:34;6.13;;;4.57;;
72899;SDS011;61043;52.036;5.566;2022-07-03T02:09:08;6.07;;;4.50;;
72899;SDS011;61043;52.036;5.566;2022-07-03T02:11:53;5.15;;;4.40;;
72899;SDS011;61043;52.036;5.566;2022-07-03T02:14:25;5.22;;;4.45;;
72899;SDS011;61043;52.036;5.566;2022-07-03T02:17:03;6.07;;;4.65;;
72899;SDS011;61043;52.036;5.566;2022-07-03T02:19:41;5.03;;;3.92;;
72899;SDS011;61043;52.036;5.566;2022-07-03T02:22:43;5.05;;;4.43;;
72899;SDS011;61043;52.036;5.566;2022-07-03T02:25:18;8.13;;;5.38;;
72899;SDS011;61043;52.036;5.566;2022-07-03T02:27:55;7.30;;;4.50;;
72899;SDS011;61043;52.036;5.566;2022-07-03T02:30:24;6.93;;;4.53;;
72899;SDS011;61043;52.036;5.566;2022-07-03T02:32:55;7.68;;;4.53;;
72899;SDS011;61043;52.036;5.566;2022-07-03T02:35:33;6.32;;;4.60;;
72899;SDS011;61043;52.036;5.566;2022-07-03T02:45:55;6.88;;;4.38;;
72899;SDS011;61043;52.036;5.566;2022-07-03T02:48:50;4.68;;;4.22;;
72899;SDS011;61043;52.036;5.566;2022-07-03T02:51:23;6.75;;;4.25;;
72899;SDS011;61043;52.036;5.566;2022-07-03T02:53:57;6.40;;;4.10;;
72899;SDS011;61043;52.036;5.566;2022-07-03T02:56:39;5.38;;;4.35;;
72899;SDS011;61043;52.036;5.566;2022-07-03T03:02:29;6.55;;;4.05;;
72899;SDS011;61043;52.036;5.566;2022-07-03T03:10:37;6.55;;;4.10;;
72899;SDS011;61043;52.036;5.566;2022-07-03T03:13:05;7.03;;;4.25;;
72899;SDS011;61043;52.036;5.566;2022-07-03T03:15:35;6.47;;;3.90;;
72899;SDS011;61043;52.036;5.566;2022-07-03T03:18:04;5.65;;;4.20;;
72899;SDS011;61043;52.036;5.566;2022-07-03T03:26:11;5.20;;;4.10;;
72899;SDS011;61043;52.036;5.566;2022-07-03T03:28:39;6.05;;;3.72;;
72899;SDS011;61043;52.036;5.566;2022-07-03T03:31:07;4.53;;;3.47;;
72899;SDS011;61043;52.036;5.566;2022-07-03T03:33:38;6.20;;;4.00;;
72899;SDS011;61043;52.036;5.566;2022-07-03T03:36:09;4.68;;;3.75;;
72899;SDS011;61043;52.036;5.566;2022-07-03T03:38:38;5.75;;;3.88;;
72899;SDS011;61043;52.036;5.566;2022-07-03T03:41:05;5.43;;;3.22;;
72899;SDS011;61043;52.036;5.566;2022-07-03T03:43:33;5.20;;;3.20;;
72899;SDS011;61043;52.036;5.566;2022-07-03T03:46:00;5.13;;;3.42;;
72899;SDS011;61043;52.036;5.566;2022-07-03T03:48:28;4.18;;;3.15;;
72899;SDS011;61043;52.036;5.566;2022-07-03T03:50:58;4.82;;;3.10;;
72899;SDS011;61043;52.036;5.566;2022-07-03T03:53:25;5.05;;;2.92;;
72899;SDS011;61043;52.036;5.566;2022-07-03T03:58:31;5.15;;;2.90;;
72899;SDS011;61043;52.036;5.566;2022-07-03T04:00:59;4.85;;;2.75;;
72899;SDS011;61043;52.036;5.566;2022-07-03T04:03:28;4.25;;;2.80;;
72899;SDS011;61043;52.036;5.566;2022-07-03T04:05:56;5.40;;;2.85;;
72899;SDS011;61043;52.036;5.566;2022-07-03T04:08:23;4.32;;;2.83;;
72899;SDS011;61043;52.036;5.566;2022-07-03T04:10:50;4.82;;;3.00;;
72899;SDS011;61043;52.036;5.566;2022-07-03T04:13:17;3.70;;;2.58;;
72899;SDS011;61043;52.036;5.566;2022-07-03T04:15:46;6.32;;;2.70;;
72899;SDS011;61043;52.036;5.566;2022-07-03T04:18:17;6.28;;;2.40;;
72899;SDS011;61043;52.036;5.566;2022-07-03T04:20:44;3.10;;;2.35;;
72899;SDS011;61043;52.036;5.566;2022-07-03T04:23:11;3.85;;;2.40;;
72899;SDS011;61043;52.036;5.566;2022-07-03T04:25:37;3.35;;;2.25;;
72899;SDS011;61043;52.036;5.566;2022-07-03T04:28:04;3.78;;;2.20;;
72899;SDS011;61043;52.036;5.566;2022-07-03T04:30:45;4.55;;;2.58;;
72899;SDS011;61043;52.036;5.566;2022-07-03T04:33:11;4.45;;;2.30;;
72899;SDS011;61043;52.036;5.566;2022-07-03T04:35:38;4.70;;;2.50;;
72899;SDS011;61043;52.036;5.566;2022-07-03T04:38:04;3.97;;;2.70;;
72899;SDS011;61043;52.036;5.566;2022-07-03T04:40:31;3.10;;;2.42;;
72899;SDS011;61043;52.036;5.566;2022-07-03T04:42:59;6.90;;;2.97;;
72899;SDS011;61043;52.036;5.566;2022-07-03T04:45:26;4.63;;;2.90;;
72899;SDS011;61043;52.036;5.566;2022-07-03T04:47:53;3.85;;;2.60;;
72899;SDS011;61043;52.036;5.566;2022-07-03T04:50:19;3.97;;;2.63;;
72899;SDS011;61043;52.036;5.566;2022-07-03T04:52:46;4.07;;;2.65;;
72899;SDS011;61043;52.036;5.566;2022-07-03T04:55:13;5.05;;;2.50;;
72899;SDS011;61043;52.036;5.566;2022-07-03T04:57:39;6.00;;;2.42;;
72899;SDS011;61043;52.036;5.566;2022-07-03T05:00:06;4.43;;;2.80;;
72899;SDS011;61043;52.036;5.566;2022-07-03T05:02:33;3.70;;;2.60;;
72899;SDS011;61043;52.036;5.566;2022-07-03T05:05:01;7.00;;;3.20;;
72899;SDS011;61043;52.036;5.566;2022-07-03T05:07:27;4.32;;;2.60;;
72899;SDS011;61043;52.036;5.566;2022-07-03T05:09:54;4.68;;;2.50;;
72899;SDS011;61043;52.036;5.566;2022-07-03T05:12:21;5.07;;;2.58;;
72899;SDS011;61043;52.036;5.566;2022-07-03T05:14:48;6.22;;;2.70;;
72899;SDS011;61043;52.036;5.566;2022-07-03T05:17:16;3.72;;;2.47;;
72899;SDS011;61043;52.036;5.566;2022-07-03T05:19:43;7.00;;;3.20;;
72899;SDS011;61043;52.036;5.566;2022-07-03T05:22:10;4.55;;;2.42;;
72899;SDS011;61043;52.036;5.566;2022-07-03T05:24:37;6.65;;;2.60;;
72899;SDS011;61043;52.036;5.566;2022-07-03T05:27:06;4.45;;;2.60;;
72899;SDS011;61043;52.036;5.566;2022-07-03T05:29:33;5.00;;;2.47;;
72899;SDS011;61043;52.036;5.566;2022-07-03T05:32:05;4.47;;;2.33;;
72899;SDS011;61043;52.036;5.566;2022-07-03T05:34:32;5.25;;;2.30;;
72899;SDS011;61043;52.036;5.566;2022-07-03T05:36:58;3.72;;;2.45;;
72899;SDS011;61043;52.036;5.566;2022-07-03T05:39:26;3.13;;;1.95;;
72899;SDS011;61043;52.036;5.566;2022-07-03T05:41:59;6.47;;;2.10;;
72899;SDS011;61043;52.036;5.566;2022-07-03T05:44:26;6.32;;;2.10;;
72899;SDS011;61043;52.036;5.566;2022-07-03T05:46:53;5.63;;;2.05;;
72899;SDS011;61043;52.036;5.566;2022-07-03T05:49:19;5.20;;;2.28;;
72899;SDS011;61043;52.036;5.566;2022-07-03T05:51:46;3.28;;;1.90;;
72899;SDS011;61043;52.036;5.566;2022-07-03T05:54:13;3.97;;;1.67;;
72899;SDS011;61043;52.036;5.566;2022-07-03T05:56:40;5.95;;;1.80;;
72899;SDS011;61043;52.036;5.566;2022-07-03T05:59:06;6.90;;;1.95;;
72899;SDS011;61043;52.036;5.566;2022-07-03T06:01:33;4.70;;;2.15;;
72899;SDS011;61043;52.036;5.566;2022-07-03T06:03:59;3.40;;;1.80;;
72899;SDS011;61043;52.036;5.566;2022-07-03T06:06:26;4.53;;;1.98;;
72899;SDS011;61043;52.036;5.566;2022-07-03T06:08:53;5.47;;;1.83;;
72899;SDS011;61043;52.036;5.566;2022-07-03T06:11:20;3.40;;;1.55;;
72899;SDS011;61043;52.036;5.566;2022-07-03T06:13:47;7.20;;;1.95;;
72899;SDS011;61043;52.036;5.566;2022-07-03T06:16:15;6.07;;;2.00;;
72899;SDS011;61043;52.036;5.566;2022-07-03T06:18:44;2.75;;;1.60;;
72899;SDS011;61043;52.036;5.566;2022-07-03T06:21:11;5.38;;;2.08;;
72899;SDS011;61043;52.036;5.566;2022-07-03T06:23:37;3.53;;;1.77;;
72899;SDS011;61043;52.036;5.566;2022-07-03T06:26:13;5.10;;;1.88;;
72899;SDS011;61043;52.036;5.566;2022-07-03T06:28:41;4.88;;;2.00;;
72899;SDS011;61043;52.036;5.566;2022-07-03T06:31:08;3.17;;;1.63;;
72899;SDS011;61043;52.036;5.566;2022-07-03T06:33:35;4.72;;;1.85;;
72899;SDS011;61043;52.036;5.566;2022-07-03T06:36:01;5.50;;;1.67;;
72899;SDS011;61043;52.036;5.566;2022-07-03T06:38:28;4.78;;;1.70;;
72899;SDS011;61043;52.036;5.566;2022-07-03T06:40:57;5.85;;;1.80;;
72899;SDS011;61043;52.036;5.566;2022-07-03T06:43:24;2.97;;;1.48;;
72899;SDS011;61043;52.036;5.566;2022-07-03T06:45:50;3.80;;;1.70;;
72899;SDS011;61043;52.036;5.566;2022-07-03T06:48:17;6.30;;;1.80;;
72899;SDS011;61043;52.036;5.566;2022-07-03T06:50:45;5.25;;;2.00;;
72899;SDS011;61043;52.036;5.566;2022-07-03T06:53:12;9.32;;;2.75;;
72899;SDS011;61043;52.036;5.566;2022-07-03T06:55:39;5.60;;;1.83;;
72899;SDS011;61043;52.036;5.566;2022-07-03T06:58:05;5.25;;;1.70;;
72899;SDS011;61043;52.036;5.566;2022-07-03T07:00:32;5.53;;;1.60;;
72899;SDS011;61043;52.036;5.566;2022-07-03T07:02:58;8.50;;;1.98;;
72899;SDS011;61043;52.036;5.566;2022-07-03T07:05:25;4.45;;;1.80;;
72899;SDS011;61043;52.036;5.566;2022-07-03T07:07:52;4.68;;;2.08;;
72899;SDS011;61043;52.036;5.566;2022-07-03T07:10:19;6.70;;;1.92;;
72899;SDS011;61043;52.036;5.566;2022-07-03T07:12:45;2.92;;;1.55;;
72899;SDS011;61043;52.036;5.566;2022-07-03T07:15:12;8.90;;;1.83;;
72899;SDS011;61043;52.036;5.566;2022-07-03T07:17:40;5.25;;;1.70;;
72899;SDS011;61043;52.036;5.566;2022-07-03T07:20:07;4.30;;;1.55;;
72899;SDS011;61043;52.036;5.566;2022-07-03T07:22:35;6.88;;;2.00;;
72899;SDS011;61043;52.036;5.566;2022-07-03T07:25:02;3.90;;;1.80;;
72899;SDS011;61043;52.036;5.566;2022-07-03T07:27:28;5.05;;;1.90;;
72899;SDS011;61043;52.036;5.566;2022-07-03T07:29:55;4.88;;;1.70;;
72899;SDS011;61043;52.036;5.566;2022-07-03T07:32:22;6.07;;;2.20;;
72899;SDS011;61043;52.036;5.566;2022-07-03T07:34:51;4.22;;;1.67;;
72899;SDS011;61043;52.036;5.566;2022-07-03T07:37:18;5.40;;;1.63;;
72899;SDS011;61043;52.036;5.566;2022-07-03T07:39:45;6.95;;;2.00;;
72899;SDS011;61043;52.036;5.566;2022-07-03T07:42:12;3.85;;;1.58;;
72899;SDS011;61043;52.036;5.566;2022-07-03T07:44:39;5.68;;;1.58;;
72899;SDS011;61043;52.036;5.566;2022-07-03T07:47:06;5.65;;;2.00;;
72899;SDS011;61043;52.036;5.566;2022-07-03T07:49:33;3.97;;;1.70;;
72899;SDS011;61043;52.036;5.566;2022-07-03T07:51:59;4.43;;;2.28;;
72899;SDS011;61043;52.036;5.566;2022-07-03T07:54:26;5.65;;;1.98;;
72899;SDS011;61043;52.036;5.566;2022-07-03T07:56:53;5.28;;;2.00;;
72899;SDS011;61043;52.036;5.566;2022-07-03T07:59:19;4.57;;;2.00;;
72899;SDS011;61043;52.036;5.566;2022-07-03T08:01:46;4.95;;;1.70;;
72899;SDS011;61043;52.036;5.566;2022-07-03T08:04:34;5.60;;;2.00;;
72899;SDS011;61043;52.036;5.566;2022-07-03T08:07:19;3.33;;;1.92;;
72899;SDS011;61043;52.036;5.566;2022-07-03T08:09:45;4.68;;;2.10;;
72899;SDS011;61043;52.036;5.566;2022-07-03T08:12:12;5.38;;;1.85;;
72899;SDS011;61043;52.036;5.566;2022-07-03T08:14:42;3.58;;;1.85;;
72899;SDS011;61043;52.036;5.566;2022-07-03T08:17:08;5.37;;;1.93;;
72899;SDS011;61043;52.036;5.566;2022-07-03T08:19:35;4.05;;;1.80;;
72899;SDS011;61043;52.036;5.566;2022-07-03T08:22:02;5.20;;;1.85;;
72899;SDS011;61043;52.036;5.566;2022-07-03T08:24:29;3.80;;;1.58;;
72899;SDS011;61043;52.036;5.566;2022-07-03T08:26:57;5.15;;;1.98;;
72899;SDS011;61043;52.036;5.566;2022-07-03T08:29:24;4.50;;;1.80;;
72899;SDS011;61043;52.036;5.566;2022-07-03T08:31:50;4.38;;;2.08;;
72899;SDS011;61043;52.036;5.566;2022-07-03T08:34:17;3.95;;;1.77;;
72899;SDS011;61043;52.036;5.566;2022-07-03T08:36:44;2.10;;;1.58;;
72899;SDS011;61043;52.036;5.566;2022-07-03T08:39:10;4.20;;;1.67;;
72899;SDS011;61043;52.036;5.566;2022-07-03T08:41:38;4.28;;;1.63;;
72899;SDS011;61043;52.036;5.566;2022-07-03T08:44:11;6.82;;;1.58;;
72899;SDS011;61043;52.036;5.566;2022-07-03T08:46:38;5.47;;;1.50;;
72899;SDS011;61043;52.036;5.566;2022-07-03T08:49:06;3.10;;;1.40;;
72899;SDS011;61043;52.036;5.566;2022-07-03T08:51:34;4.32;;;1.90;;
72899;SDS011;61043;52.036;5.566;2022-07-03T08:54:02;5.47;;;1.80;;
72899;SDS011;61043;52.036;5.566;2022-07-03T08:56:30;3.50;;;1.60;;
72899;SDS011;61043;52.036;5.566;2022-07-03T08:58:58;3.90;;;1.70;;
72899;SDS011;61043;52.036;5.566;2022-07-03T09:01:26;4.95;;;2.30;;
72899;SDS011;61043;52.036;5.566;2022-07-03T09:03:54;5.43;;;2.10;;
72899;SDS011;61043;52.036;5.566;2022-07-03T09:06:24;3.95;;;1.60;;
72899;SDS011;61043;52.036;5.566;2022-07-03T09:08:50;4.07;;;1.52;;
72899;SDS011;61043;52.036;5.566;2022-07-03T09:11:19;7.32;;;2.13;;
72899;SDS011;61043;52.036;5.566;2022-07-03T09:13:46;5.10;;;1.77;;
72899;SDS011;61043;52.036;5.566;2022-07-03T09:16:20;3.03;;;1.42;;
72899;SDS011;61043;52.036;5.566;2022-07-03T09:18:47;4.43;;;1.60;;
72899;SDS011;61043;52.036;5.566;2022-07-03T09:21:14;4.03;;;1.75;;
72899;SDS011;61043;52.036;5.566;2022-07-03T09:23:43;3.67;;;1.80;;
72899;SDS011;61043;52.036;5.566;2022-07-03T09:26:14;5.00;;;1.77;;
72899;SDS011;61043;52.036;5.566;2022-07-03T09:31:16;7.10;;;1.92;;
72899;SDS011;61043;52.036;5.566;2022-07-03T09:34:00;7.70;;;1.80;;
72899;SDS011;61043;52.036;5.566;2022-07-03T09:36:38;2.30;;;1.45;;
72899;SDS011;61043;52.036;5.566;2022-07-03T09:42:00;2.60;;;1.77;;
72899;SDS011;61043;52.036;5.566;2022-07-03T09:44:32;4.43;;;1.75;;
72899;SDS011;61043;52.036;5.566;2022-07-03T09:47:13;3.92;;;1.60;;
72899;SDS011;61043;52.036;5.566;2022-07-03T09:49:56;3.65;;;1.40;;
72899;SDS011;61043;52.036;5.566;2022-07-03T09:52:32;4.45;;;1.60;;
72899;SDS011;61043;52.036;5.566;2022-07-03T09:57:41;2.75;;;1.52;;
72899;SDS011;61043;52.036;5.566;2022-07-03T10:00:13;2.65;;;1.33;;
72899;SDS011;61043;52.036;5.566;2022-07-03T10:05:20;3.17;;;1.42;;
72899;SDS011;61043;52.036;5.566;2022-07-03T10:07:51;4.03;;;1.60;;
72899;SDS011;61043;52.036;5.566;2022-07-03T10:10:23;3.67;;;1.50;;
72899;SDS011;61043;52.036;5.566;2022-07-03T10:12:52;3.47;;;1.55;;
72899;SDS011;61043;52.036;5.566;2022-07-03T10:15:20;2.53;;;1.30;;
72899;SDS011;61043;52.036;5.566;2022-07-03T10:17:48;4.72;;;1.80;;
72899;SDS011;61043;52.036;5.566;2022-07-03T10:20:18;2.60;;;1.52;;
72899;SDS011;61043;52.036;5.566;2022-07-03T10:22:58;3.67;;;1.70;;
72899;SDS011;61043;52.036;5.566;2022-07-03T10:25:25;3.53;;;1.85;;
72899;SDS011;61043;52.036;5.566;2022-07-03T10:27:51;5.07;;;2.00;;
72899;SDS011;61043;52.036;5.566;2022-07-03T10:30:19;3.88;;;1.63;;
72899;SDS011;61043;52.036;5.566;2022-07-03T10:32:48;3.90;;;1.58;;
72899;SDS011;61043;52.036;5.566;2022-07-03T10:40:40;3.70;;;1.47;;
72899;SDS011;61043;52.036;5.566;2022-07-03T10:43:27;4.78;;;1.73;;
72899;SDS011;61043;52.036;5.566;2022-07-03T10:46:16;2.58;;;1.55;;
72899;SDS011;61043;52.036;5.566;2022-07-03T10:48:56;2.47;;;1.42;;
72899;SDS011;61043;52.036;5.566;2022-07-03T10:51:28;7.28;;;1.52;;
72899;SDS011;61043;52.036;5.566;2022-07-03T10:54:13;4.38;;;1.70;;
72899;SDS011;61043;52.036;5.566;2022-07-03T11:02:44;5.28;;;1.75;;
72899;SDS011;61043;52.036;5.566;2022-07-03T11:07:32;2.92;;;1.50;;
72899;SDS011;61043;52.036;5.566;2022-07-03T11:15:30;2.95;;;1.50;;
72899;SDS011;61043;52.036;5.566;2022-07-03T11:28:57;5.03;;;1.70;;
72899;SDS011;61043;52.036;5.566;2022-07-03T11:41:11;2.65;;;1.45;;
72899;SDS011;61043;52.036;5.566;2022-07-03T11:43:48;3.92;;;1.60;;
72899;SDS011;61043;52.036;5.566;2022-07-03T11:46:20;3.85;;;1.35;;
72899;SDS011;61043;52.036;5.566;2022-07-03T11:51:36;3.53;;;1.42;;
72899;SDS011;61043;52.036;5.566;2022-07-03T11:54:04;3.83;;;1.52;;
72899;SDS011;61043;52.036;5.566;2022-07-03T11:56:31;3.55;;;1.83;;
72899;SDS011;61043;52.036;5.566;2022-07-03T11:58:59;5.25;;;2.13;;
72899;SDS011;61043;52.036;5.566;2022-07-03T12:01:34;7.55;;;2.08;;
72899;SDS011;61043;52.036;5.566;2022-07-03T12:04:06;6.13;;;1.98;;
72899;SDS011;61043;52.036;5.566;2022-07-03T12:06:50;4.47;;;2.05;;
72899;SDS011;61043;52.036;5.566;2022-07-03T12:09:25;5.07;;;2.25;;
72899;SDS011;61043;52.036;5.566;2022-07-03T12:12:10;3.22;;;1.80;;
72899;SDS011;61043;52.036;5.566;2022-07-03T12:17:08;5.10;;;1.77;;
72899;SDS011;61043;52.036;5.566;2022-07-03T12:19:51;2.53;;;1.60;;
72899;SDS011;61043;52.036;5.566;2022-07-03T12:22:44;5.35;;;1.92;;
72899;SDS011;61043;52.036;5.566;2022-07-03T12:25:11;2.60;;;1.80;;
72899;SDS011;61043;52.036;5.566;2022-07-03T12:27:39;4.70;;;1.70;;
72899;SDS011;61043;52.036;5.566;2022-07-03T12:30:08;3.92;;;1.60;;
72899;SDS011;61043;52.036;5.566;2022-07-03T12:32:37;3.80;;;1.60;;
72899;SDS011;61043;52.036;5.566;2022-07-03T12:35:05;2.83;;;1.45;;
72899;SDS011;61043;52.036;5.566;2022-07-03T12:40:00;4.70;;;1.70;;
72899;SDS011;61043;52.036;5.566;2022-07-03T12:42:27;4.20;;;1.40;;
72899;SDS011;61043;52.036;5.566;2022-07-03T12:44:54;4.82;;;1.60;;
72899;SDS011;61043;52.036;5.566;2022-07-03T12:47:25;3.55;;;1.42;;
72899;SDS011;61043;52.036;5.566;2022-07-03T12:49:59;3.45;;;1.50;;
72899;SDS011;61043;52.036;5.566;2022-07-03T12:52:29;2.47;;;1.50;;
72899;SDS011;61043;52.036;5.566;2022-07-03T12:54:58;2.00;;;1.33;;
72899;SDS011;61043;52.036;5.566;2022-07-03T12:57:25;3.15;;;1.48;;
72899;SDS011;61043;52.036;5.566;2022-07-03T13:00:12;4.32;;;1.67;;
72899;SDS011;61043;52.036;5.566;2022-07-03T13:02:43;2.83;;;1.45;;
72899;SDS011;61043;52.036;5.566;2022-07-03T13:05:18;3.33;;;1.40;;
72899;SDS011;61043;52.036;5.566;2022-07-03T13:07:50;3.10;;;1.55;;
72899;SDS011;61043;52.036;5.566;2022-07-03T13:10:18;3.35;;;1.40;;
72899;SDS011;61043;52.036;5.566;2022-07-03T13:15:23;5.28;;;1.85;;
72899;SDS011;61043;52.036;5.566;2022-07-03T13:20:24;5.70;;;1.92;;
72899;SDS011;61043;52.036;5.566;2022-07-03T13:22:55;4.68;;;2.17;;
72899;SDS011;61043;52.036;5.566;2022-07-03T13:25:23;3.97;;;1.85;;
72899;SDS011;61043;52.036;5.566;2022-07-03T13:27:50;4.32;;;1.92;;
72899;SDS011;61043;52.036;5.566;2022-07-03T13:30:18;3.22;;;1.98;;
72899;SDS011;61043;52.036;5.566;2022-07-03T13:32:45;5.45;;;2.85;;
72899;SDS011;61043;52.036;5.566;2022-07-03T13:35:12;6.20;;;2.40;;
72899;SDS011;61043;52.036;5.566;2022-07-03T13:37:38;3.10;;;1.85;;
72899;SDS011;61043;52.036;5.566;2022-07-03T13:40:05;4.55;;;2.00;;
72899;SDS011;61043;52.036;5.566;2022-07-03T13:42:32;3.30;;;1.98;;
72899;SDS011;61043;52.036;5.566;2022-07-03T13:44:58;3.13;;;1.70;;
72899;SDS011;61043;52.036;5.566;2022-07-03T13:47:25;2.83;;;1.80;;
72899;SDS011;61043;52.036;5.566;2022-07-03T13:49:51;4.72;;;2.17;;
72899;SDS011;61043;52.036;5.566;2022-07-03T13:52:18;5.80;;;2.30;;
72899;SDS011;61043;52.036;5.566;2022-07-03T13:54:45;3.60;;;2.25;;
72899;SDS011;61043;52.036;5.566;2022-07-03T13:57:12;4.00;;;2.03;;
72899;SDS011;61043;52.036;5.566;2022-07-03T13:59:39;3.83;;;2.20;;
72899;SDS011;61043;52.036;5.566;2022-07-03T14:02:06;4.95;;;2.40;;
72899;SDS011;61043;52.036;5.566;2022-07-03T14:04:32;4.90;;;2.00;;
72899;SDS011;61043;52.036;5.566;2022-07-03T14:06:59;4.63;;;1.90;;
72899;SDS011;61043;52.036;5.566;2022-07-03T14:09:26;4.72;;;2.15;;
72899;SDS011;61043;52.036;5.566;2022-07-03T14:11:52;4.72;;;2.30;;
72899;SDS011;61043;52.036;5.566;2022-07-03T14:14:19;3.50;;;2.10;;
72899;SDS011;61043;52.036;5.566;2022-07-03T14:16:45;4.90;;;2.03;;
72899;SDS011;61043;52.036;5.566;2022-07-03T14:19:16;4.07;;;2.03;;
72899;SDS011;61043;52.036;5.566;2022-07-03T14:21:43;2.45;;;1.70;;
72899;SDS011;61043;52.036;5.566;2022-07-03T14:24:11;3.40;;;2.00;;
72899;SDS011;61043;52.036;5.566;2022-07-03T14:26:37;4.65;;;2.10;;
72899;SDS011;61043;52.036;5.566;2022-07-03T14:29:22;2.33;;;1.60;;
72899;SDS011;61043;52.036;5.566;2022-07-03T14:32:07;3.63;;;1.77;;
72899;SDS011;61043;52.036;5.566;2022-07-03T14:34:52;2.67;;;1.70;;
72899;SDS011;61043;52.036;5.566;2022-07-03T14:37:19;2.65;;;1.90;;
72899;SDS011;61043;52.036;5.566;2022-07-03T14:39:47;3.40;;;1.83;;
72899;SDS011;61043;52.036;5.566;2022-07-03T14:42:15;4.07;;;1.92;;
72899;SDS011;61043;52.036;5.566;2022-07-03T14:44:43;3.80;;;2.20;;
72899;SDS011;61043;52.036;5.566;2022-07-03T14:47:10;6.32;;;2.05;;
72899;SDS011;61043;52.036;5.566;2022-07-03T14:49:40;3.85;;;1.52;;
72899;SDS011;61043;52.036;5.566;2022-07-03T14:52:07;5.43;;;1.95;;
72899;SDS011;61043;52.036;5.566;2022-07-03T14:54:34;3.15;;;1.77;;
72899;SDS011;61043;52.036;5.566;2022-07-03T14:57:02;4.90;;;2.17;;
72899;SDS011;61043;52.036;5.566;2022-07-03T14:59:39;4.60;;;2.00;;
72899;SDS011;61043;52.036;5.566;2022-07-03T15:02:30;5.28;;;2.10;;
72899;SDS011;61043;52.036;5.566;2022-07-03T15:05:09;3.20;;;1.77;;
72899;SDS011;61043;52.036;5.566;2022-07-03T15:07:38;2.95;;;1.90;;
72899;SDS011;61043;52.036;5.566;2022-07-03T15:10:25;4.13;;;1.92;;
72899;SDS011;61043;52.036;5.566;2022-07-03T15:12:52;3.05;;;1.70;;
72899;SDS011;61043;52.036;5.566;2022-07-03T15:15:21;3.67;;;1.63;;
72899;SDS011;61043;52.036;5.566;2022-07-03T15:17:52;5.63;;;1.63;;
72899;SDS011;61043;52.036;5.566;2022-07-03T15:20:19;4.95;;;1.83;;
72899;SDS011;61043;52.036;5.566;2022-07-03T15:22:59;3.70;;;1.77;;
72899;SDS011;61043;52.036;5.566;2022-07-03T15:25:30;4.10;;;1.90;;
72899;SDS011;61043;52.036;5.566;2022-07-03T15:28:13;3.97;;;1.77;;
72899;SDS011;61043;52.036;5.566;2022-07-03T15:30:52;2.58;;;1.60;;
72899;SDS011;61043;52.036;5.566;2022-07-03T15:33:23;2.72;;;1.50;;
72899;SDS011;61043;52.036;5.566;2022-07-03T15:36:00;4.70;;;1.85;;
72899;SDS011;61043;52.036;5.566;2022-07-03T15:38:37;4.88;;;1.92;;
72899;SDS011;61043;52.036;5.566;2022-07-03T15:41:13;4.30;;;1.77;;
72899;SDS011;61043;52.036;5.566;2022-07-03T15:43:56;3.90;;;1.80;;
72899;SDS011;61043;52.036;5.566;2022-07-03T15:46:38;3.80;;;1.63;;
72899;SDS011;61043;52.036;5.566;2022-07-03T15:49:30;2.67;;;1.50;;
72899;SDS011;61043;52.036;5.566;2022-07-03T15:52:03;4.43;;;1.73;;
72899;SDS011;61043;52.036;5.566;2022-07-03T15:54:44;3.72;;;1.70;;
72899;SDS011;61043;52.036;5.566;2022-07-03T15:57:49;2.97;;;1.73;;
72899;SDS011;61043;52.036;5.566;2022-07-03T16:00:21;2.47;;;1.40;;
72899;SDS011;61043;52.036;5.566;2022-07-03T16:02:56;3.17;;;1.73;;
72899;SDS011;61043;52.036;5.566;2022-07-03T16:05:39;4.75;;;1.90;;
72899;SDS011;61043;52.036;5.566;2022-07-03T16:08:07;3.85;;;1.70;;
72899;SDS011;61043;52.036;5.566;2022-07-03T16:10:38;3.13;;;1.70;;
72899;SDS011;61043;52.036;5.566;2022-07-03T16:13:05;3.00;;;1.50;;
72899;SDS011;61043;52.036;5.566;2022-07-03T16:15:37;3.47;;;1.75;;
72899;SDS011;61043;52.036;5.566;2022-07-03T16:18:12;2.92;;;1.65;;
72899;SDS011;61043;52.036;5.566;2022-07-03T16:20:40;5.65;;;2.50;;
72899;SDS011;61043;52.036;5.566;2022-07-03T16:23:08;4.45;;;1.67;;
72899;SDS011;61043;52.036;5.566;2022-07-03T16:25:36;3.85;;;1.80;;
72899;SDS011;61043;52.036;5.566;2022-07-03T16:28:07;2.72;;;1.60;;
72899;SDS011;61043;52.036;5.566;2022-07-03T16:30:36;5.20;;;2.00;;
72899;SDS011;61043;52.036;5.566;2022-07-03T16:33:10;2.90;;;1.88;;
72899;SDS011;61043;52.036;5.566;2022-07-03T16:35:42;2.65;;;1.40;;
72899;SDS011;61043;52.036;5.566;2022-07-03T16:38:17;3.83;;;1.77;;
72899;SDS011;61043;52.036;5.566;2022-07-03T16:40:46;5.00;;;1.80;;
72899;SDS011;61043;52.036;5.566;2022-07-03T16:43:15;3.33;;;1.40;;
72899;SDS011;61043;52.036;5.566;2022-07-03T16:45:45;5.03;;;1.65;;
72899;SDS011;61043;52.036;5.566;2022-07-03T16:48:22;2.70;;;1.58;;
72899;SDS011;61043;52.036;5.566;2022-07-03T16:50:51;3.63;;;1.40;;